Amherst, Wisconsin
Current Conditions -  °F | °C
As of 6:55 PM on Tuesday 21 Oct 2014 (Local Time) from KSTE Reporting Station
Clear Clear  
Wind Chill: 40°   Ceiling: Unl
Heat Index: 40°   Visibility: 10mi
Dew Point: 35°   Wind: 0mph
Humidity: 82%   Direction: NA
Pressure: 30.23"   Gusts: NA
Location:  44.45°N, 89.28°W
Report Text: KSTE 212355Z AUTO 00000KT 10SM CLR 04/02 A3023 RMK AO2 P0001 60003 T00440015 10101 20040
Loading
Personal Weather Stations






























Interactive Weather Map New forecast layout! Learn more

10-Day Weather Forecast

Advertisements
Track Severe Weather on mobile